createdAt,value
2022-09-20T04:00:31.733Z,2.70
2022-09-20T04:05:31.764Z,2.80
2022-09-20T04:10:31.592Z,3.10
2022-09-20T04:15:31.552Z,3.00
2022-09-20T04:20:31.892Z,3.30
2022-09-20T04:25:31.434Z,3.30
2022-09-20T04:30:31.391Z,2.90
2022-09-20T04:35:31.335Z,2.90
2022-09-20T04:40:31.355Z,3.00
2022-09-20T04:45:31.281Z,3.30
2022-09-20T04:50:31.174Z,3.20
2022-09-20T04:55:31.109Z,2.80
2022-09-20T05:00:31.089Z,3.20
2022-09-20T05:05:31.028Z,2.90
2022-09-20T05:10:30.947Z,2.90
2022-09-20T05:15:30.912Z,2.50
2022-09-20T05:20:30.871Z,2.80
2022-09-20T05:25:30.801Z,2.60
2022-09-20T05:30:30.747Z,2.80
2022-09-20T05:35:30.697Z,2.40
2022-09-20T05:40:30.821Z,3.50
2022-09-20T05:45:30.607Z,2.50
2022-09-20T05:50:30.516Z,2.90
2022-09-20T05:55:30.479Z,2.90
2022-09-20T06:00:30.601Z,2.80
2022-09-20T06:05:30.403Z,2.60
2022-09-20T06:10:30.316Z,2.80
2022-09-20T06:15:30.269Z,3.20
2022-09-20T06:20:30.219Z,2.90
2022-09-20T06:25:30.161Z,2.80
2022-09-20T06:30:30.215Z,2.40
2022-09-20T06:35:30.045Z,2.30
2022-09-20T06:40:30.088Z,2.60
2022-09-20T06:45:29.949Z,3.40
2022-09-20T06:50:29.879Z,3.10
2022-09-20T06:55:29.944Z,3.80
2022-09-20T07:00:29.833Z,3.80
2022-09-20T07:05:29.713Z,4.00
2022-09-20T07:10:29.683Z,4.50
2022-09-20T07:15:29.606Z,4.50
2022-09-20T07:20:29.598Z,4.30
2022-09-20T07:25:29.497Z,4.00
2022-09-20T07:30:29.463Z,4.10
2022-09-20T07:35:29.385Z,4.00
2022-09-20T07:40:29.444Z,4.50
2022-09-20T07:45:29.306Z,4.20
2022-09-20T07:50:29.236Z,4.50
2022-09-20T07:55:29.167Z,4.60
2022-09-20T08:00:29.155Z,4.40
2022-09-20T08:05:29.051Z,4.40
2022-09-20T08:10:29.012Z,4.20
2022-09-20T08:15:28.942Z,4.00
2022-09-20T08:20:28.935Z,4.40
2022-09-20T08:25:28.833Z,4.70
2022-09-20T08:30:28.800Z,3.70
2022-09-20T08:35:28.724Z,3.80
2022-09-20T08:40:28.742Z,3.40
2022-09-20T08:45:35.695Z,2.30
2022-09-20T08:50:29.583Z,3.10
2022-09-20T08:55:28.504Z,2.50
2022-09-20T09:00:28.493Z,2.80
2022-09-20T09:05:28.399Z,2.40
2022-09-20T09:10:28.375Z,1.60
2022-09-20T09:15:28.294Z,1.80
2022-09-20T09:20:28.272Z,1.80
2022-09-20T09:25:28.181Z,1.50
2022-09-20T09:30:28.504Z,2.10
2022-09-20T09:35:28.070Z,1.80
2022-09-20T09:40:28.107Z,2.00
2022-09-20T09:45:28.115Z,2.30
2022-09-20T09:50:27.929Z,2.20
2022-09-20T09:55:27.852Z,2.00
2022-09-20T10:00:27.959Z,3.00
2022-09-20T10:05:27.759Z,2.60
2022-09-20T10:10:27.705Z,2.30
2022-09-20T10:15:27.636Z,2.60
2022-09-20T10:20:27.615Z,2.30
2022-09-20T10:25:27.525Z,2.30
2022-09-20T10:30:27.485Z,2.60
2022-09-20T10:35:27.419Z,2.40
2022-09-20T10:40:27.446Z,2.70
2022-09-20T10:45:59.110Z,1.90
2022-09-20T10:50:28.273Z,1.90
2022-09-20T10:55:27.199Z,2.20
2022-09-20T11:00:27.172Z,1.50
2022-09-20T11:05:27.086Z,1.60
2022-09-20T11:10:27.049Z,1.50
2022-09-20T11:15:26.971Z,1.50
2022-09-20T11:20:26.948Z,1.30
2022-09-20T11:25:29.632Z,1.00
2022-09-20T11:30:26.819Z,1.30
2022-09-20T11:35:26.754Z,1.30
2022-09-20T11:40:26.881Z,0.90
2022-09-20T11:45:28.566Z,0.80
2022-09-20T11:50:26.609Z,0.90
2022-09-20T11:55:26.531Z,0.90
2022-09-20T12:00:26.579Z,1.10
2022-09-20T12:05:26.426Z,1.00
2022-09-20T12:10:26.392Z,1.50
2022-09-20T12:15:26.315Z,1.50
2022-09-20T12:20:26.304Z,1.10
2022-09-20T12:25:26.202Z,1.20
2022-09-20T12:30:26.169Z,1.40
2022-09-20T12:35:26.088Z,1.50
2022-09-20T12:40:26.123Z,1.30
2022-09-20T12:45:26.033Z,1.10
2022-09-20T12:50:25.951Z,1.30
2022-09-20T12:55:25.875Z,1.50
2022-09-20T13:00:25.862Z,1.60
2022-09-20T13:05:25.764Z,1.40
2022-09-20T13:10:25.719Z,1.40
2022-09-20T13:15:25.694Z,1.10
2022-09-20T13:20:25.618Z,1.30
2022-09-20T13:25:25.555Z,1.10
2022-09-20T13:30:25.500Z,1.00
2022-09-20T13:35:25.442Z,0.70
2022-09-20T13:40:25.460Z,0.80
2022-09-20T13:45:25.355Z,1.00
2022-09-20T13:50:25.285Z,0.80
2022-09-20T13:55:25.224Z,0.90
2022-09-20T14:00:25.198Z,1.00
2022-09-20T14:05:25.123Z,1.20
2022-09-20T14:10:25.064Z,1.10
2022-09-20T14:15:25.012Z,1.00
2022-09-20T14:20:24.978Z,1.10
2022-09-20T14:25:24.905Z,0.80
2022-09-20T14:30:24.846Z,1.10
2022-09-20T14:35:24.791Z,1.00
2022-09-20T14:40:24.842Z,0.90
2022-09-20T14:45:24.770Z,0.80
2022-09-20T14:50:24.619Z,0.90
2022-09-20T14:55:24.576Z,0.90
2022-09-20T15:00:24.596Z,1.20
2022-09-20T15:05:24.456Z,0.90
2022-09-20T15:10:24.413Z,0.60
2022-09-20T15:15:24.362Z,1.00
2022-09-20T15:20:24.841Z,0.90
2022-09-20T15:25:24.261Z,1.10
2022-09-20T15:30:24.206Z,0.90
2022-09-20T15:35:24.125Z,1.00
2022-09-20T15:40:24.137Z,1.20
2022-09-20T15:45:24.066Z,1.40
2022-09-20T15:50:23.981Z,1.00
2022-09-20T15:55:23.901Z,0.80
2022-09-20T16:00:23.911Z,1.30
2022-09-20T16:05:23.920Z,1.70
2022-09-20T16:10:23.737Z,1.50
2022-09-20T16:15:30.771Z,1.10
2022-09-20T16:20:23.625Z,1.70
2022-09-20T16:25:23.584Z,2.40
2022-09-20T16:30:23.527Z,1.00
2022-09-20T16:35:23.497Z,1.20
2022-09-20T16:40:23.449Z,1.10
2022-09-20T16:45:23.539Z,1.50
2022-09-20T16:50:23.304Z,1.20
2022-09-20T16:55:23.268Z,1.40
2022-09-20T17:00:23.190Z,1.00
2022-09-20T17:05:23.135Z,1.30
2022-09-20T17:10:23.079Z,2.30
2022-09-20T17:15:23.045Z,1.40
2022-09-20T17:20:22.968Z,1.30
2022-09-20T17:25:22.918Z,1.40
2022-09-20T17:30:22.872Z,1.60
2022-09-20T17:35:22.827Z,1.80
2022-09-20T17:40:22.809Z,1.50
2022-09-20T17:45:22.701Z,2.20
2022-09-20T17:50:22.650Z,2.00
2022-09-20T17:55:22.603Z,2.00
2022-09-20T18:00:22.554Z,1.90
2022-09-20T18:05:22.508Z,2.20
2022-09-20T18:10:22.416Z,2.30
2022-09-20T18:15:22.442Z,2.40
2022-09-20T18:20:22.337Z,2.20
2022-09-20T18:25:22.258Z,2.70
2022-09-20T18:30:22.229Z,2.80
2022-09-20T18:35:22.192Z,2.40
2022-09-20T18:40:22.137Z,2.60
2022-09-20T18:45:22.047Z,3.90
2022-09-20T18:50:21.997Z,3.00
2022-09-20T18:55:21.976Z,3.10
2022-09-20T19:00:21.872Z,2.50
2022-09-20T19:05:21.836Z,2.30
2022-09-20T19:10:21.789Z,2.10
2022-09-20T19:15:21.734Z,2.70
2022-09-20T19:20:21.674Z,2.90
2022-09-20T19:25:21.615Z,3.00
2022-09-20T19:30:21.547Z,2.10
2022-09-20T19:35:21.526Z,2.50
2022-09-20T19:40:21.526Z,2.60
2022-09-20T19:45:21.387Z,2.30
2022-09-20T19:50:21.435Z,2.30
2022-09-20T19:55:21.325Z,2.80
2022-09-20T20:00:21.225Z,2.50
2022-09-20T20:05:21.269Z,2.40
2022-09-20T20:10:21.139Z,2.50
2022-09-20T20:15:21.083Z,2.70
2022-09-20T20:20:21.026Z,3.20
2022-09-20T20:25:20.985Z,3.60
2022-09-20T20:30:20.908Z,4.30
2022-09-20T20:35:20.886Z,4.00
2022-09-20T20:40:20.868Z,3.90
2022-09-20T20:45:20.746Z,3.90
2022-09-20T20:50:20.702Z,4.00
2022-09-20T20:55:20.821Z,3.90
2022-09-20T21:00:20.594Z,4.10
2022-09-20T21:05:20.546Z,3.90
2022-09-20T21:10:20.499Z,4.10
2022-09-20T21:15:20.447Z,3.30
2022-09-20T21:20:20.387Z,3.50
2022-09-20T21:25:20.338Z,3.60
2022-09-20T21:30:20.265Z,3.10
2022-09-20T21:35:20.305Z,3.10
2022-09-20T21:40:20.240Z,3.50
2022-09-20T21:45:20.102Z,3.50
2022-09-20T21:50:20.062Z,3.40
2022-09-20T21:55:20.030Z,3.50
2022-09-20T22:00:19.967Z,3.70
2022-09-20T22:05:19.890Z,3.30
2022-09-20T22:10:19.846Z,3.50
2022-09-20T22:15:26.948Z,3.50
2022-09-20T22:20:19.727Z,3.50
2022-09-20T22:25:19.690Z,3.40
2022-09-20T22:30:19.642Z,3.60
2022-09-20T22:35:19.595Z,3.50
2022-09-20T22:40:19.617Z,3.80
2022-09-20T22:45:19.468Z,3.60
2022-09-20T22:50:19.414Z,3.70
2022-09-20T22:55:19.368Z,3.20
2022-09-20T23:00:19.307Z,3.50
2022-09-20T23:05:19.240Z,3.80
2022-09-20T23:10:19.210Z,4.00
2022-09-20T23:15:19.152Z,3.60
2022-09-20T23:20:19.098Z,3.70
2022-09-20T23:25:19.021Z,3.80
